createdAt,value
2023-05-22T00:01:27.464Z,54.40
2023-05-22T00:11:35.742Z,54.00
2023-05-22T00:21:53.511Z,54.30
2023-05-22T00:32:49.954Z,53.30
2023-05-22T00:43:53.602Z,53.30
2023-05-22T00:54:21.137Z,52.40
2023-05-22T01:15:19.905Z,52.50
2023-05-22T01:38:07.037Z,51.30
2023-05-22T02:00:00.648Z,50.70
2023-05-22T02:10:11.033Z,51.70
2023-05-22T02:20:19.849Z,51.80
2023-05-22T02:30:26.923Z,52.90
2023-05-22T02:40:36.914Z,52.70
2023-05-22T02:50:45.163Z,53.20
2023-05-22T03:00:54.615Z,53.30
2023-05-22T03:11:02.156Z,53.60
2023-05-22T03:21:10.901Z,54.00
2023-05-22T03:31:18.766Z,53.90
2023-05-22T03:41:47.991Z,53.10
2023-05-22T03:51:55.567Z,53.80
2023-05-22T04:02:04.363Z,54.10
2023-05-22T04:12:11.960Z,54.30
2023-05-22T04:22:20.487Z,54.40
2023-05-22T04:32:28.503Z,53.90
2023-05-22T04:42:38.253Z,56.00
2023-05-22T04:52:45.046Z,56.50
2023-05-22T05:02:53.852Z,57.80
2023-05-22T05:13:00.919Z,59.60
2023-05-22T05:23:11.181Z,60.80
2023-05-22T05:33:18.108Z,61.60
2023-05-22T05:43:47.236Z,61.60
2023-05-22T05:53:54.198Z,62.20
2023-05-22T06:04:04.341Z,60.30
2023-05-22T06:14:13.101Z,59.50
2023-05-22T06:24:21.769Z,59.30
2023-05-22T06:34:30.677Z,59.20
2023-05-22T06:44:42.049Z,59.20
2023-05-22T06:54:49.112Z,59.40
2023-05-22T07:04:57.760Z,60.60
2023-05-22T07:15:33.779Z,61.70
2023-05-22T07:25:45.291Z,62.40
2023-05-22T07:46:42.530Z,63.70
2023-05-22T07:56:58.597Z,64.30
2023-05-22T08:07:10.868Z,63.90
2023-05-22T08:17:23.344Z,63.40
2023-05-22T08:27:39.346Z,64.00
2023-05-22T08:37:58.292Z,64.10
2023-05-22T08:48:08.680Z,64.10
2023-05-22T08:58:17.092Z,63.50
2023-05-22T09:08:34.918Z,63.70
2023-05-22T09:18:42.110Z,63.50
2023-05-22T09:28:53.259Z,63.30
2023-05-22T09:39:02.594Z,62.80
2023-05-22T09:49:43.959Z,62.70
2023-05-22T10:00:03.222Z,62.40
2023-05-22T10:22:07.644Z,62.10
2023-05-22T10:32:27.923Z,62.30
2023-05-22T10:42:42.344Z,62.20
2023-05-22T10:53:12.522Z,62.40
2023-05-22T11:03:19.469Z,62.30
2023-05-22T11:13:30.808Z,62.00
2023-05-22T11:23:40.935Z,61.70
2023-05-22T11:33:52.156Z,61.50
2023-05-22T11:43:58.979Z,61.10
2023-05-22T11:54:08.650Z,61.20
2023-05-22T12:04:18.195Z,61.00
2023-05-22T12:14:35.420Z,61.10
2023-05-22T12:24:42.793Z,61.20
2023-05-22T12:34:54.450Z,61.20
2023-05-22T12:45:01.502Z,61.20
2023-05-22T12:55:13.264Z,60.80
2023-05-22T13:05:20.396Z,61.00
2023-05-22T13:15:32.220Z,60.30
2023-05-22T13:25:39.353Z,60.30
2023-05-22T13:35:48.012Z,60.20
2023-05-22T13:45:54.930Z,59.90
2023-05-22T13:56:04.116Z,59.90
2023-05-22T14:06:11.271Z,59.60
2023-05-22T14:16:19.765Z,59.40
2023-05-22T14:26:26.916Z,59.30
2023-05-22T14:36:35.552Z,59.10
2023-05-22T14:46:49.858Z,58.00
2023-05-22T14:56:58.953Z,57.60
2023-05-22T15:07:05.987Z,57.50
2023-05-22T15:17:14.486Z,57.60
2023-05-22T15:27:21.291Z,57.70
2023-05-22T15:37:32.582Z,57.90
2023-05-22T15:47:39.581Z,58.10
2023-05-22T15:57:48.661Z,55.20
2023-05-22T16:07:55.636Z,53.20
2023-05-22T16:18:04.873Z,52.60
2023-05-22T16:28:11.946Z,52.70
2023-05-22T16:38:20.640Z,52.70
2023-05-22T16:48:29.049Z,52.50
2023-05-22T16:58:37.868Z,55.00
2023-05-22T17:08:45.171Z,55.00
2023-05-22T17:18:54.934Z,55.00
2023-05-22T17:29:02.434Z,55.80
2023-05-22T17:39:10.962Z,54.90
2023-05-22T17:49:18.009Z,54.50
2023-05-22T17:59:27.672Z,54.80
2023-05-22T18:09:38.310Z,54.10
2023-05-22T18:19:50.033Z,60.70
2023-05-22T18:29:57.393Z,55.20
2023-05-22T18:40:10.375Z,54.60
2023-05-22T18:50:17.296Z,54.00
2023-05-22T19:00:26.542Z,56.10
2023-05-22T19:10:33.949Z,57.30
2023-05-22T19:20:42.629Z,55.70
2023-05-22T19:30:49.898Z,54.90
2023-05-22T19:40:58.574Z,56.30
2023-05-22T19:51:06.067Z,54.00
2023-05-22T20:01:15.039Z,54.50
2023-05-22T20:11:22.641Z,52.80
2023-05-22T20:21:31.200Z,53.60
2023-05-22T20:31:38.204Z,53.70
2023-05-22T20:41:53.240Z,53.40
2023-05-22T20:52:02.861Z,53.20
